createdAt,value
2022-09-14T00:01:48.990Z,3.90
2022-09-14T00:04:23.358Z,4.50
2022-09-14T00:06:57.215Z,3.65
2022-09-14T00:09:31.213Z,3.50
2022-09-14T00:12:05.596Z,5.10
2022-09-14T00:14:40.681Z,4.53
2022-09-14T00:17:15.904Z,3.80
2022-09-14T00:19:49.925Z,3.42
2022-09-14T00:22:23.827Z,3.78
2022-09-14T00:27:31.272Z,3.63
2022-09-14T00:30:05.906Z,3.78
2022-09-14T00:32:41.234Z,3.47
2022-09-14T00:35:15.146Z,6.00
2022-09-14T00:37:51.578Z,3.20
2022-09-14T00:40:25.824Z,6.65
2022-09-14T00:42:59.697Z,4.38
2022-09-14T00:48:09.628Z,3.30
2022-09-14T00:50:43.992Z,4.53
2022-09-14T00:53:18.084Z,4.75
2022-09-14T00:55:54.172Z,3.30
2022-09-14T00:58:28.336Z,3.47
2022-09-14T01:01:02.608Z,3.05
2022-09-14T01:03:39.436Z,3.58
2022-09-14T01:06:20.096Z,3.35
2022-09-14T01:09:16.416Z,4.03
2022-09-14T01:12:06.275Z,3.53
2022-09-14T01:14:46.080Z,3.65
2022-09-14T01:17:26.951Z,2.60
2022-09-14T01:20:17.033Z,3.80
2022-09-14T01:22:54.657Z,3.80
2022-09-14T01:26:01.474Z,3.60
2022-09-14T01:28:42.601Z,3.28
2022-09-14T01:31:19.873Z,3.75
2022-09-14T01:33:58.949Z,3.97
2022-09-14T01:36:36.162Z,3.05
2022-09-14T01:39:11.237Z,3.83
2022-09-14T01:41:47.936Z,3.17
2022-09-14T01:44:26.850Z,3.10
2022-09-14T01:47:06.386Z,2.90
2022-09-14T01:49:44.186Z,4.25
2022-09-14T01:52:21.727Z,3.97
2022-09-14T01:54:59.688Z,2.88
2022-09-14T01:57:38.694Z,4.30
2022-09-14T02:00:18.071Z,4.10
2022-09-14T02:02:56.513Z,3.20
2022-09-14T02:05:35.558Z,2.97
2022-09-14T02:08:09.698Z,3.20
2022-09-14T02:10:43.653Z,3.20
2022-09-14T02:13:17.452Z,3.33
2022-09-14T02:18:26.613Z,3.05
2022-09-14T02:21:04.270Z,2.60
2022-09-14T02:23:38.068Z,4.80
2022-09-14T02:28:46.337Z,2.92
2022-09-14T02:31:28.297Z,2.95
2022-09-14T02:34:08.445Z,2.47
2022-09-14T02:36:50.236Z,2.45
2022-09-14T02:39:41.928Z,2.53
2022-09-14T02:42:26.762Z,3.90
2022-09-14T02:45:07.759Z,3.60
2022-09-14T02:47:55.518Z,3.35
2022-09-14T02:50:36.268Z,2.97
2022-09-14T02:53:15.907Z,3.03
2022-09-14T02:55:53.783Z,3.97
2022-09-14T02:58:35.872Z,4.32
2022-09-14T03:01:12.465Z,3.35
2022-09-14T03:03:47.812Z,3.28
2022-09-14T03:06:21.611Z,2.97
2022-09-14T03:11:29.072Z,3.53
2022-09-14T03:14:02.888Z,3.17
2022-09-14T03:19:12.510Z,2.93
2022-09-14T03:21:46.576Z,2.67
2022-09-14T03:24:20.353Z,1.77
2022-09-14T03:29:27.703Z,2.22
2022-09-14T03:34:36.447Z,2.70
2022-09-14T03:37:10.295Z,2.47
2022-09-14T03:39:44.341Z,2.42
2022-09-14T03:44:51.674Z,3.13
2022-09-14T03:50:00.511Z,2.93
2022-09-14T03:52:35.175Z,5.10
2022-09-14T03:55:10.954Z,2.40
2022-09-14T03:57:44.705Z,2.30
2022-09-14T04:00:18.943Z,2.88
2022-09-14T04:02:53.062Z,2.63
2022-09-14T04:05:28.320Z,2.60
2022-09-14T04:08:02.121Z,2.38
2022-09-14T04:13:09.451Z,2.00
2022-09-14T04:15:43.433Z,2.80
2022-09-14T04:18:17.270Z,2.97
2022-09-14T04:23:31.084Z,2.85
2022-09-14T04:26:11.994Z,2.58
2022-09-14T04:28:46.609Z,3.45
2022-09-14T04:31:20.536Z,2.78
2022-09-14T04:33:57.324Z,2.72
2022-09-14T04:36:32.886Z,4.13
2022-09-14T04:39:07.004Z,2.85
2022-09-14T04:41:40.989Z,2.97
2022-09-14T04:46:48.455Z,2.92
2022-09-14T04:49:22.339Z,2.65
2022-09-14T04:54:31.070Z,10.32
2022-09-14T04:59:38.481Z,4.50
2022-09-14T05:04:45.945Z,6.57
2022-09-14T05:09:54.674Z,3.85
2022-09-14T05:15:01.988Z,3.60
2022-09-14T05:20:10.445Z,3.08
2022-09-14T05:22:45.694Z,3.70
2022-09-14T05:25:19.748Z,3.10
2022-09-14T05:27:53.544Z,4.28
2022-09-14T05:33:00.840Z,2.90
2022-09-14T05:38:09.607Z,5.07
2022-09-14T05:40:43.527Z,2.72
2022-09-14T05:43:17.509Z,3.05
2022-09-14T05:48:24.871Z,6.57
2022-09-14T05:53:35.218Z,7.88
2022-09-14T05:56:11.333Z,4.00
2022-09-14T05:58:45.178Z,5.10
2022-09-14T06:06:28.918Z,6.70
2022-09-14T06:09:05.773Z,11.95
2022-09-14T06:11:39.911Z,14.13
2022-09-14T06:14:13.891Z,24.10
2022-09-14T06:19:21.467Z,19.50
2022-09-14T06:21:55.441Z,13.05
2022-09-14T06:24:30.993Z,13.60
2022-09-14T06:27:04.986Z,18.40
2022-09-14T06:29:38.899Z,22.52
2022-09-14T06:34:46.324Z,19.87
2022-09-14T06:37:20.212Z,17.00
2022-09-14T06:39:56.051Z,12.52
2022-09-14T06:42:31.597Z,19.60
2022-09-14T06:45:06.826Z,18.60
2022-09-14T06:47:40.738Z,21.42
2022-09-14T06:50:14.694Z,19.98
2022-09-14T06:55:23.415Z,19.40
2022-09-14T06:57:57.190Z,16.05
2022-09-14T07:03:04.751Z,11.38
2022-09-14T07:05:38.581Z,14.88
2022-09-14T07:10:57.485Z,17.40
2022-09-14T07:13:32.123Z,14.10
2022-09-14T07:16:06.800Z,13.68
2022-09-14T07:18:41.082Z,15.90
2022-09-14T07:21:17.038Z,13.73
2022-09-14T07:23:51.485Z,14.63
2022-09-14T07:26:28.144Z,12.60
2022-09-14T07:29:04.504Z,14.95
2022-09-14T07:31:41.872Z,11.38
2022-09-14T07:34:17.053Z,12.07
2022-09-14T07:36:50.891Z,12.77
2022-09-14T07:42:00.002Z,12.27
2022-09-14T07:44:33.815Z,11.23
2022-09-14T07:49:41.280Z,13.23
2022-09-14T07:52:15.197Z,15.93
2022-09-14T07:54:49.085Z,17.80
2022-09-14T08:02:54.980Z,15.53
2022-09-14T08:05:29.110Z,10.05
2022-09-14T08:08:03.247Z,15.15
2022-09-14T08:10:37.740Z,15.60
2022-09-14T08:13:13.444Z,13.70
2022-09-14T08:15:47.416Z,12.52
2022-09-14T08:18:21.258Z,16.05
2022-09-14T08:23:28.628Z,22.13
2022-09-14T08:28:41.211Z,18.83
2022-09-14T08:31:17.176Z,22.70
2022-09-14T08:33:52.936Z,14.63
2022-09-14T08:36:28.818Z,21.13
2022-09-14T08:39:03.097Z,13.65
2022-09-14T08:41:42.355Z,14.10
2022-09-14T08:44:22.552Z,19.83
2022-09-14T08:47:03.009Z,17.27
2022-09-14T08:49:48.438Z,17.15
2022-09-14T08:52:27.159Z,16.70
2022-09-14T08:55:02.780Z,23.75
2022-09-14T08:57:45.035Z,19.60
2022-09-14T09:00:24.650Z,17.65
2022-09-14T09:03:29.970Z,13.25
2022-09-14T09:06:15.652Z,22.20
2022-09-14T09:08:59.535Z,16.98
2022-09-14T09:11:39.358Z,19.25
2022-09-14T09:14:19.959Z,20.42
2022-09-14T09:16:58.509Z,17.65
2022-09-14T09:19:36.037Z,13.35
2022-09-14T09:22:16.380Z,14.02
2022-09-14T09:24:54.023Z,19.77
2022-09-14T09:27:29.104Z,12.70
2022-09-14T09:30:03.422Z,11.68
2022-09-14T09:32:40.665Z,12.90
2022-09-14T09:35:26.662Z,10.82
2022-09-14T09:38:15.377Z,10.68
2022-09-14T09:40:53.883Z,12.90
2022-09-14T09:43:48.457Z,11.45
2022-09-14T09:46:22.108Z,10.30
2022-09-14T09:48:58.582Z,13.15
2022-09-14T09:51:34.666Z,13.38
2022-09-14T09:54:20.533Z,6.10
2022-09-14T09:56:58.213Z,13.95
2022-09-14T09:59:35.962Z,8.98
2022-09-14T10:02:23.867Z,3.83
2022-09-14T10:05:01.774Z,6.55
2022-09-14T10:07:38.025Z,8.38
2022-09-14T10:10:14.319Z,4.00
2022-09-14T10:12:50.549Z,4.68
2022-09-14T10:15:27.099Z,6.85
2022-09-14T10:18:10.188Z,7.22
2022-09-14T10:20:48.225Z,6.30
2022-09-14T10:23:25.951Z,6.13
2022-09-14T10:26:24.113Z,6.13
2022-09-14T10:29:31.055Z,6.68
2022-09-14T10:32:16.024Z,4.97
2022-09-14T10:34:51.326Z,5.07
2022-09-14T10:37:33.953Z,8.32
2022-09-14T10:40:20.264Z,7.72
2022-09-14T10:43:09.221Z,6.05
2022-09-14T10:45:48.526Z,6.63
2022-09-14T10:48:51.947Z,8.43
2022-09-14T10:51:36.910Z,14.52
2022-09-14T10:54:24.212Z,9.00
2022-09-14T10:57:07.596Z,21.23
2022-09-14T10:59:50.007Z,14.07
2022-09-14T11:02:52.223Z,15.52
2022-09-14T11:05:30.382Z,12.40
2022-09-14T11:08:16.576Z,12.98
2022-09-14T11:11:09.366Z,8.75
2022-09-14T11:13:59.624Z,12.05
2022-09-14T11:16:50.779Z,10.77
2022-09-14T11:19:36.785Z,14.27
2022-09-14T11:22:20.415Z,5.93
2022-09-14T11:24:59.335Z,11.23
2022-09-14T11:27:41.289Z,9.05
2022-09-14T11:30:19.285Z,7.80
2022-09-14T11:32:57.515Z,10.95
2022-09-14T11:35:36.276Z,7.18
2022-09-14T11:38:16.052Z,10.10
2022-09-14T11:40:56.492Z,8.50
2022-09-14T11:43:38.405Z,8.85
2022-09-14T11:46:16.047Z,9.43
2022-09-14T11:48:55.328Z,9.23
2022-09-14T11:51:34.143Z,8.95
2022-09-14T11:54:16.798Z,13.57
2022-09-14T11:56:52.616Z,10.65
2022-09-14T11:59:50.613Z,5.90
2022-09-14T12:03:03.028Z,6.07
2022-09-14T12:05:37.976Z,6.65
2022-09-14T12:08:29.245Z,8.90
2022-09-14T12:11:25.879Z,15.63
2022-09-14T12:14:29.732Z,9.77
2022-09-14T12:20:49.311Z,5.60
2022-09-14T12:23:29.059Z,8.45
2022-09-14T12:26:26.595Z,7.03
2022-09-14T12:29:36.488Z,12.48
2022-09-14T12:32:43.556Z,8.98
2022-09-14T12:35:46.806Z,8.98
2022-09-14T12:39:06.843Z,6.85
2022-09-14T12:42:32.414Z,12.60
2022-09-14T12:45:49.022Z,10.23
2022-09-14T12:48:59.133Z,9.18
2022-09-14T12:51:45.980Z,4.10
2022-09-14T12:54:27.374Z,8.07
2022-09-14T12:57:15.274Z,6.50
2022-09-14T12:59:55.825Z,9.02
2022-09-14T13:03:14.873Z,6.72
2022-09-14T13:05:51.163Z,4.70
2022-09-14T13:08:26.012Z,4.57
2022-09-14T13:10:59.992Z,6.88
2022-09-14T13:13:34.767Z,6.88
2022-09-14T13:16:09.305Z,3.58
2022-09-14T13:18:43.281Z,10.18
2022-09-14T13:21:24.116Z,8.50
2022-09-14T13:23:58.184Z,5.50
2022-09-14T13:29:09.907Z,5.38
2022-09-14T13:31:46.721Z,8.45
2022-09-14T13:34:24.469Z,7.53
2022-09-14T13:37:00.007Z,4.63
2022-09-14T13:39:36.177Z,4.75
2022-09-14T13:42:11.478Z,12.35
2022-09-14T13:44:47.067Z,9.95
2022-09-14T13:47:23.614Z,14.82
2022-09-14T13:49:58.534Z,11.45
2022-09-14T13:55:44.968Z,11.50
2022-09-14T13:58:24.255Z,17.38
2022-09-14T14:01:00.482Z,13.65
2022-09-14T14:03:38.309Z,13.55
2022-09-14T14:06:27.301Z,10.45
2022-09-14T14:09:04.994Z,8.98
2022-09-14T14:11:41.306Z,12.23
2022-09-14T14:14:26.466Z,16.23
2022-09-14T14:17:23.592Z,10.13
2022-09-14T14:19:59.215Z,6.57
2022-09-14T14:22:35.934Z,8.00
2022-09-14T14:25:29.373Z,11.95
2022-09-14T14:28:04.759Z,12.88
2022-09-14T14:30:41.935Z,6.60
2022-09-14T14:33:18.753Z,7.68
2022-09-14T14:35:54.658Z,9.13
2022-09-14T14:38:28.510Z,6.22
2022-09-14T14:43:37.823Z,6.68
2022-09-14T14:46:11.860Z,13.43
2022-09-14T14:48:45.860Z,8.73
2022-09-14T14:51:19.895Z,11.70
2022-09-14T14:53:53.808Z,19.02
2022-09-14T14:56:29.824Z,16.80
2022-09-14T14:59:03.809Z,12.75
2022-09-14T15:01:37.777Z,13.55
2022-09-14T15:04:11.720Z,5.50
2022-09-14T15:06:47.520Z,14.93
2022-09-14T15:09:23.654Z,17.00
2022-09-14T15:11:59.019Z,9.57
2022-09-14T15:14:32.905Z,13.02
2022-09-14T15:19:40.469Z,10.52
2022-09-14T15:24:48.153Z,13.50
2022-09-14T15:29:57.484Z,8.63
2022-09-14T15:32:31.394Z,9.40
2022-09-14T15:37:38.907Z,10.10
2022-09-14T15:40:13.131Z,10.50
2022-09-14T15:42:48.481Z,8.55
2022-09-14T15:45:22.379Z,8.43
2022-09-14T15:47:56.508Z,9.75
2022-09-14T15:50:30.396Z,6.03
2022-09-14T15:55:41.024Z,11.80
2022-09-14T15:58:16.458Z,10.05
2022-09-14T16:00:50.944Z,7.20
2022-09-14T16:03:25.129Z,7.85
2022-09-14T16:06:01.740Z,9.82
2022-09-14T16:08:37.414Z,5.10
2022-09-14T16:11:11.785Z,6.90
2022-09-14T16:13:47.304Z,8.88
2022-09-14T16:16:22.467Z,5.47
2022-09-14T16:18:57.689Z,5.72
2022-09-14T16:21:32.015Z,6.30
2022-09-14T16:24:08.681Z,6.68
2022-09-14T16:26:43.737Z,8.18
2022-09-14T16:29:20.997Z,7.43
2022-09-14T16:31:55.669Z,6.60
2022-09-14T16:34:31.481Z,4.55
2022-09-14T16:37:05.496Z,5.68
2022-09-14T16:39:39.445Z,9.45
2022-09-14T16:42:13.674Z,8.45
2022-09-14T16:44:49.342Z,7.63
2022-09-14T16:47:25.841Z,7.28
2022-09-14T16:49:59.938Z,7.22
2022-09-14T16:52:34.258Z,8.43
2022-09-14T16:55:09.378Z,9.55
2022-09-14T16:57:43.531Z,10.93
2022-09-14T17:00:19.180Z,5.55
2022-09-14T17:02:54.258Z,13.32
2022-09-14T17:05:29.059Z,6.28
2022-09-14T17:08:04.173Z,4.00
2022-09-14T17:10:39.160Z,7.03
2022-09-14T17:13:13.814Z,7.55
2022-09-14T17:15:50.110Z,5.60
2022-09-14T17:18:24.987Z,7.90
2022-09-14T17:21:01.930Z,6.15
2022-09-14T17:23:36.360Z,6.70
2022-09-14T17:26:14.458Z,14.48
2022-09-14T17:29:43.564Z,7.57
2022-09-14T17:32:37.822Z,9.23
2022-09-14T17:35:12.344Z,12.23
2022-09-14T17:37:48.053Z,9.32
2022-09-14T17:40:22.854Z,10.00
2022-09-14T17:42:57.946Z,17.02
2022-09-14T17:45:33.769Z,11.30
2022-09-14T17:48:11.334Z,10.23
2022-09-14T17:50:46.639Z,12.20
2022-09-14T17:53:22.494Z,14.65
2022-09-14T17:56:05.137Z,12.15
2022-09-14T17:58:40.955Z,13.77
2022-09-14T18:01:18.942Z,16.83
2022-09-14T18:03:58.110Z,12.43
2022-09-14T18:06:35.413Z,16.33
2022-09-14T18:09:14.330Z,16.52
2022-09-14T18:11:51.275Z,11.27
2022-09-14T18:14:27.196Z,10.18
2022-09-14T18:17:02.591Z,9.13
2022-09-14T18:19:40.009Z,10.98
2022-09-14T18:22:17.562Z,14.55
2022-09-14T18:24:52.921Z,9.95
2022-09-14T18:27:28.158Z,9.02
2022-09-14T18:30:03.731Z,13.25
2022-09-14T18:32:39.038Z,10.50
2022-09-14T18:35:17.075Z,24.30
2022-09-14T18:37:52.670Z,9.10
2022-09-14T18:40:27.551Z,9.57
2022-09-14T18:43:02.902Z,10.90
2022-09-14T18:45:38.102Z,10.88
2022-09-14T18:48:13.928Z,11.80
2022-09-14T18:50:50.968Z,10.60
2022-09-14T18:53:26.174Z,12.02
2022-09-14T18:56:03.834Z,7.38
2022-09-14T18:58:40.561Z,8.85
2022-09-14T19:01:16.608Z,8.52
2022-09-14T19:03:51.820Z,12.77
2022-09-14T19:06:28.429Z,17.00
2022-09-14T19:09:03.215Z,11.88
2022-09-14T19:11:38.157Z,9.45
2022-09-14T19:14:15.972Z,12.27
2022-09-14T19:16:52.181Z,11.45
2022-09-14T19:19:27.117Z,10.25
2022-09-14T19:22:03.393Z,14.63
2022-09-14T19:24:38.036Z,12.05
2022-09-14T19:27:12.239Z,10.90
2022-09-14T19:29:46.330Z,12.27
2022-09-14T19:32:20.651Z,11.70
2022-09-14T19:34:54.714Z,14.32
2022-09-14T19:37:31.382Z,15.00
2022-09-14T19:40:05.967Z,11.55
2022-09-14T19:42:39.891Z,12.38
2022-09-14T19:45:16.613Z,11.65
2022-09-14T19:47:50.462Z,14.60
2022-09-14T19:50:24.491Z,13.55
2022-09-14T19:53:03.897Z,15.55
2022-09-14T19:55:38.535Z,13.98
2022-09-14T19:58:12.378Z,17.52
2022-09-14T20:03:19.856Z,11.50
2022-09-14T20:06:01.157Z,11.20
2022-09-14T20:08:37.524Z,9.77
2022-09-14T20:11:15.631Z,12.77
2022-09-14T20:13:55.500Z,11.57
2022-09-14T20:16:31.251Z,13.30
2022-09-14T20:19:07.654Z,16.08
2022-09-14T20:21:43.432Z,12.85
2022-09-14T20:24:21.029Z,12.23
2022-09-14T20:26:59.153Z,15.77
2022-09-14T20:29:35.738Z,15.05
2022-09-14T20:32:09.967Z,29.20
2022-09-14T20:34:46.301Z,17.33
2022-09-14T20:37:22.784Z,15.93
2022-09-14T20:39:59.212Z,15.10
2022-09-14T20:42:34.945Z,20.83
2022-09-14T20:45:13.402Z,17.02
2022-09-14T20:47:47.753Z,10.02
2022-09-14T20:50:21.740Z,13.55
2022-09-14T20:52:55.712Z,16.95
2022-09-14T20:55:34.160Z,13.93
2022-09-14T20:58:08.054Z,13.80
2022-09-14T21:00:42.577Z,13.88
2022-09-14T21:03:16.523Z,13.95
2022-09-14T21:05:54.275Z,14.55
2022-09-14T21:08:28.266Z,14.30
2022-09-14T21:11:07.337Z,11.00
2022-09-14T21:13:41.573Z,12.85
2022-09-14T21:16:17.358Z,11.05
2022-09-14T21:18:56.350Z,15.52
2022-09-14T21:21:30.948Z,11.35
2022-09-14T21:24:07.219Z,12.57
2022-09-14T21:26:44.257Z,12.18
2022-09-14T21:29:20.984Z,15.05
2022-09-14T21:31:55.168Z,13.30
2022-09-14T21:34:29.200Z,12.93
2022-09-14T21:37:03.390Z,13.55
2022-09-14T21:39:38.211Z,12.65
2022-09-14T21:42:13.472Z,12.95
2022-09-14T21:44:47.357Z,13.50
2022-09-14T21:47:21.891Z,10.00
2022-09-14T21:49:55.948Z,9.18
2022-09-14T21:52:30.054Z,15.45
2022-09-14T21:55:04.019Z,11.43
2022-09-14T21:57:39.542Z,9.40
2022-09-14T22:00:14.217Z,11.60
2022-09-14T22:02:48.177Z,9.88
2022-09-14T22:05:22.033Z,10.75
2022-09-14T22:07:55.893Z,8.10
2022-09-14T22:13:05.053Z,9.93
2022-09-14T22:15:38.940Z,8.25
2022-09-14T22:18:12.913Z,8.25
2022-09-14T22:20:46.786Z,11.52
2022-09-14T22:25:54.580Z,9.27
2022-09-14T22:28:30.374Z,10.13
2022-09-14T22:31:04.353Z,9.73
2022-09-14T22:33:38.432Z,9.30
2022-09-14T22:36:13.268Z,10.38
2022-09-14T22:38:47.781Z,11.50
2022-09-14T22:41:22.796Z,10.25
2022-09-14T22:43:58.386Z,9.93
2022-09-14T22:46:32.283Z,9.13
2022-09-14T22:49:06.184Z,9.13
2022-09-14T22:51:40.270Z,10.52
2022-09-14T22:54:14.411Z,10.05
2022-09-14T22:56:48.296Z,10.00
2022-09-14T23:01:57.134Z,9.93
2022-09-14T23:04:31.308Z,13.70
2022-09-14T23:07:06.876Z,9.73
2022-09-14T23:09:41.073Z,10.80
2022-09-14T23:12:14.893Z,10.55
2022-09-14T23:17:24.064Z,8.65
2022-09-14T23:19:57.900Z,10.48
2022-09-14T23:25:05.984Z,12.87
2022-09-14T23:27:39.813Z,10.88
2022-09-14T23:30:15.905Z,9.07
2022-09-14T23:32:49.752Z,12.02
2022-09-14T23:37:57.601Z,10.67
2022-09-14T23:40:31.495Z,15.43
2022-09-14T23:43:05.361Z,7.78
2022-09-14T23:48:14.553Z,8.82
2022-09-14T23:50:57.045Z,10.05
2022-09-14T23:53:31.656Z,8.40
2022-09-14T23:56:06.561Z,9.82
2022-09-14T23:58:41.553Z,9.25
